sensor_id;sensor_type;location;lat;lon;timestamp;pressure;altitude;pressure_sealevel;temperature;humidity
31225;BME280;17847;31.524;74.366;2023-09-07T00:01:37;97979.56;;;28.45;nan
31225;BME280;17847;31.524;74.366;2023-09-07T00:04:27;97984.69;;;28.46;nan
31225;BME280;17847;31.524;74.366;2023-09-07T00:07:17;97987.41;;;28.46;nan
31225;BME280;17847;31.524;74.366;2023-09-07T00:10:07;97985.03;;;28.45;nan
31225;BME280;17847;31.524;74.366;2023-09-07T00:12:57;97982.75;;;28.47;nan
31225;BME280;17847;31.524;74.366;2023-09-07T00:15:46;97985.81;;;28.45;nan
31225;BME280;17847;31.524;74.366;2023-09-07T00:18:36;97991.28;;;28.45;nan
31225;BME280;17847;31.524;74.366;2023-09-07T00:21:26;97994.31;;;28.44;nan
31225;BME280;17847;31.524;74.366;2023-09-07T00:24:16;97994.31;;;28.44;nan
31225;BME280;17847;31.524;74.366;2023-09-07T00:27:07;97997.34;;;28.42;nan
31225;BME280;17847;31.524;74.366;2023-09-07T00:29:57;98009.84;;;28.43;nan
31225;BME280;17847;31.524;74.366;2023-09-07T00:32:46;98010.38;;;28.37;nan
31225;BME280;17847;31.524;74.366;2023-09-07T00:35:37;98014.22;;;28.36;nan
31225;BME280;17847;31.524;74.366;2023-09-07T00:38:26;98017.88;;;28.40;nan
31225;BME280;17847;31.524;74.366;2023-09-07T00:41:17;98010.84;;;28.39;nan
31225;BME280;17847;31.524;74.366;2023-09-07T00:44:06;98014.34;;;28.39;nan
31225;BME280;17847;31.524;74.366;2023-09-07T00:46:57;98013.69;;;28.42;nan
31225;BME280;17847;31.524;74.366;2023-09-07T00:49:47;98017.22;;;28.43;nan
31225;BME280;17847;31.524;74.366;2023-09-07T00:52:37;98011.31;;;28.41;nan
31225;BME280;17847;31.524;74.366;2023-09-07T00:55:29;98019.16;;;28.42;nan
31225;BME280;17847;31.524;74.366;2023-09-07T00:58:22;98025.22;;;28.48;nan
31225;BME280;17847;31.524;74.366;2023-09-07T01:01:12;98017.69;;;28.53;nan
31225;BME280;17847;31.524;74.366;2023-09-07T01:04:02;98030.97;;;28.55;nan
31225;BME280;17847;31.524;74.366;2023-09-07T01:06:56;98032.91;;;28.54;nan
31225;BME280;17847;31.524;74.366;2023-09-07T01:09:56;98028.72;;;28.57;nan
31225;BME280;17847;31.524;74.366;2023-09-07T01:12:47;98036.38;;;28.64;nan
31225;BME280;17847;31.524;74.366;2023-09-07T01:15:37;98044.72;;;28.67;nan
31225;BME280;17847;31.524;74.366;2023-09-07T01:18:27;98041.66;;;28.69;nan
31225;BME280;17847;31.524;74.366;2023-09-07T01:21:18;98042.16;;;28.71;nan
31225;BME280;17847;31.524;74.366;2023-09-07T01:24:09;98043.56;;;28.77;nan
31225;BME280;17847;31.524;74.366;2023-09-07T01:27:04;98044.53;;;28.81;nan
31225;BME280;17847;31.524;74.366;2023-09-07T01:29:54;98045.50;;;28.85;nan
31225;BME280;17847;31.524;74.366;2023-09-07T01:32:45;98054.94;;;28.87;nan
31225;BME280;17847;31.524;74.366;2023-09-07T01:35:35;98057.47;;;28.92;nan
31225;BME280;17847;31.524;74.366;2023-09-07T01:38:26;98066.59;;;28.96;nan
31225;BME280;17847;31.524;74.366;2023-09-07T01:41:16;98046.66;;;29.05;nan
31225;BME280;17847;31.524;74.366;2023-09-07T01:44:07;98060.25;;;29.13;nan
31225;BME280;17847;31.524;74.366;2023-09-07T01:46:56;98060.06;;;29.18;nan
31225;BME280;17847;31.524;74.366;2023-09-07T01:49:49;98056.34;;;29.23;nan
31225;BME280;17847;31.524;74.366;2023-09-07T01:52:39;98063.19;;;29.37;nan
31225;BME280;17847;31.524;74.366;2023-09-07T01:55:29;98065.53;;;29.48;nan
31225;BME280;17847;31.524;74.366;2023-09-07T01:58:20;98068.34;;;29.60;nan
31225;BME280;17847;31.524;74.366;2023-09-07T02:01:23;98072.94;;;29.68;nan
31225;BME280;17847;31.524;74.366;2023-09-07T02:04:13;98084.41;;;29.82;nan
31225;BME280;17847;31.524;74.366;2023-09-07T02:07:04;98080.84;;;29.90;nan
31225;BME280;17847;31.524;74.366;2023-09-07T02:09:54;98088.47;;;30.17;nan
31225;BME280;17847;31.524;74.366;2023-09-07T02:12:46;98091.09;;;30.47;nan
31225;BME280;17847;31.524;74.366;2023-09-07T02:15:39;98095.13;;;30.61;nan
31225;BME280;17847;31.524;74.366;2023-09-07T02:18:29;98099.47;;;30.62;nan
31225;BME280;17847;31.524;74.366;2023-09-07T02:21:19;98107.91;;;30.69;nan
31225;BME280;17847;31.524;74.366;2023-09-07T02:24:08;98105.31;;;30.85;nan
31225;BME280;17847;31.524;74.366;2023-09-07T02:26:58;98116.44;;;31.01;nan
31225;BME280;17847;31.524;74.366;2023-09-07T02:29:48;98119.50;;;31.11;nan
31225;BME280;17847;31.524;74.366;2023-09-07T02:32:38;98121.78;;;31.21;nan
31225;BME280;17847;31.524;74.366;2023-09-07T02:35:28;98120.19;;;31.20;nan
31225;BME280;17847;31.524;74.366;2023-09-07T02:38:18;98123.88;;;31.25;nan
31225;BME280;17847;31.524;74.366;2023-09-07T02:41:09;98123.50;;;31.26;nan
31225;BME280;17847;31.524;74.366;2023-09-07T02:43:59;98125.56;;;31.17;nan
31225;BME280;17847;31.524;74.366;2023-09-07T02:46:49;98128.53;;;31.24;nan
31225;BME280;17847;31.524;74.366;2023-09-07T02:49:39;98130.69;;;31.31;nan
31225;BME280;17847;31.524;74.366;2023-09-07T02:52:30;98132.84;;;31.25;nan
31225;BME280;17847;31.524;74.366;2023-09-07T02:55:19;98137.78;;;31.32;nan
31225;BME280;17847;31.524;74.366;2023-09-07T02:58:09;98142.81;;;31.42;nan
31225;BME280;17847;31.524;74.366;2023-09-07T03:00:59;98140.97;;;31.46;nan
31225;BME280;17847;31.524;74.366;2023-09-07T03:03:52;98146.47;;;31.58;nan
31225;BME280;17847;31.524;74.366;2023-09-07T03:06:41;98146.66;;;31.53;nan
31225;BME280;17847;31.524;74.366;2023-09-07T03:09:31;98146.88;;;31.48;nan
31225;BME280;17847;31.524;74.366;2023-09-07T03:12:21;98147.69;;;31.60;nan
31225;BME280;17847;31.524;74.366;2023-09-07T03:15:12;98156.81;;;31.52;nan
31225;BME280;17847;31.524;74.366;2023-09-07T03:18:02;98156.03;;;31.76;nan
31225;BME280;17847;31.524;74.366;2023-09-07T03:20:54;98156.72;;;31.73;nan
31225;BME280;17847;31.524;74.366;2023-09-07T03:23:47;98154.41;;;31.87;nan
31225;BME280;17847;31.524;74.366;2023-09-07T03:26:37;98151.31;;;31.89;nan
31225;BME280;17847;31.524;74.366;2023-09-07T03:29:26;98155.75;;;32.05;nan
31225;BME280;17847;31.524;74.366;2023-09-07T03:32:16;98157.13;;;32.12;nan
31225;BME280;17847;31.524;74.366;2023-09-07T03:35:06;98158.03;;;32.03;nan
31225;BME280;17847;31.524;74.366;2023-09-07T03:37:59;98157.31;;;32.19;nan
31225;BME280;17847;31.524;74.366;2023-09-07T03:40:49;98160.31;;;32.14;nan
31225;BME280;17847;31.524;74.366;2023-09-07T03:43:40;98155.72;;;32.18;nan
31225;BME280;17847;31.524;74.366;2023-09-07T03:46:30;98157.78;;;32.21;nan
31225;BME280;17847;31.524;74.366;2023-09-07T03:49:20;98157.19;;;32.27;nan
31225;BME280;17847;31.524;74.366;2023-09-07T03:52:11;98159.44;;;32.37;nan
31225;BME280;17847;31.524;74.366;2023-09-07T03:55:01;98164.59;;;32.39;nan
31225;BME280;17847;31.524;74.366;2023-09-07T03:57:51;98167.38;;;32.54;nan
31225;BME280;17847;31.524;74.366;2023-09-07T04:00:44;98155.13;;;32.64;nan
31225;BME280;17847;31.524;74.366;2023-09-07T04:03:34;98152.38;;;32.64;nan
31225;BME280;17847;31.524;74.366;2023-09-07T04:06:23;98164.97;;;32.81;nan
31225;BME280;17847;31.524;74.366;2023-09-07T04:09:13;98165.63;;;32.90;nan
31225;BME280;17847;31.524;74.366;2023-09-07T04:12:04;98155.06;;;32.76;nan
31225;BME280;17847;31.524;74.366;2023-09-07T04:14:53;98165.69;;;32.93;nan
31225;BME280;17847;31.524;74.366;2023-09-07T04:17:43;98167.31;;;32.94;nan
31225;BME280;17847;31.524;74.366;2023-09-07T04:20:33;98169.97;;;33.07;nan
31225;BME280;17847;31.524;74.366;2023-09-07T04:23:23;98155.28;;;32.99;nan
31225;BME280;17847;31.524;74.366;2023-09-07T04:26:12;98156.69;;;33.09;nan
31225;BME280;17847;31.524;74.366;2023-09-07T04:29:02;98147.59;;;33.05;nan
31225;BME280;17847;31.524;74.366;2023-09-07T04:31:52;98156.63;;;33.21;nan
31225;BME280;17847;31.524;74.366;2023-09-07T04:34:42;98155.22;;;33.27;nan
31225;BME280;17847;31.524;74.366;2023-09-07T04:37:32;98159.09;;;33.41;nan
31225;BME280;17847;31.524;74.366;2023-09-07T04:40:23;98147.31;;;33.57;nan
31225;BME280;17847;31.524;74.366;2023-09-07T04:43:14;98152.97;;;33.79;nan
31225;BME280;17847;31.524;74.366;2023-09-07T04:46:03;98147.00;;;34.12;nan
31225;BME280;17847;31.524;74.366;2023-09-07T04:48:53;98139.88;;;34.46;nan
31225;BME280;17847;31.524;74.366;2023-09-07T04:51:43;98140.81;;;34.73;nan
31225;BME280;17847;31.524;74.366;2023-09-07T04:54:36;98140.44;;;35.17;nan
31225;BME280;17847;31.524;74.366;2023-09-07T04:57:26;98149.94;;;35.45;nan
31225;BME280;17847;31.524;74.366;2023-09-07T05:00:16;98145.19;;;35.65;nan
31225;BME280;17847;31.524;74.366;2023-09-07T05:03:06;98143.00;;;35.78;nan
31225;BME280;17847;31.524;74.366;2023-09-07T05:05:56;98134.94;;;35.92;nan
31225;BME280;17847;31.524;74.366;2023-09-07T05:08:45;98145.19;;;35.95;nan
31225;BME280;17847;31.524;74.366;2023-09-07T05:11:36;98137.66;;;36.18;nan
31225;BME280;17847;31.524;74.366;2023-09-07T05:14:25;98136.41;;;35.86;nan
31225;BME280;17847;31.524;74.366;2023-09-07T05:17:15;98134.97;;;36.25;nan
31225;BME280;17847;31.524;74.366;2023-09-07T05:20:05;98133.66;;;37.19;nan
31225;BME280;17847;31.524;74.366;2023-09-07T05:22:55;98135.06;;;37.47;nan
31225;BME280;17847;31.524;74.366;2023-09-07T05:25:53;98138.78;;;37.65;nan
31225;BME280;17847;31.524;74.366;2023-09-07T05:28:46;98135.56;;;37.59;nan
31225;BME280;17847;31.524;74.366;2023-09-07T05:31:35;98130.81;;;37.09;nan
31225;BME280;17847;31.524;74.366;2023-09-07T05:34:25;98122.03;;;37.47;nan
31225;BME280;17847;31.524;74.366;2023-09-07T05:37:19;98121.78;;;37.63;nan
31225;BME280;17847;31.524;74.366;2023-09-07T05:40:09;98127.41;;;37.77;nan
31225;BME280;17847;31.524;74.366;2023-09-07T05:42:59;98117.16;;;37.81;nan
31225;BME280;17847;31.524;74.366;2023-09-07T05:45:49;98113.84;;;37.58;nan
31225;BME280;17847;31.524;74.366;2023-09-07T05:48:38;98116.38;;;37.29;nan
31225;BME280;17847;31.524;74.366;2023-09-07T05:51:29;98111.97;;;37.76;nan
31225;BME280;17847;31.524;74.366;2023-09-07T05:54:19;98109.88;;;37.55;nan
31225;BME280;17847;31.524;74.366;2023-09-07T05:57:09;98116.31;;;37.70;nan
31225;BME280;17847;31.524;74.366;2023-09-07T05:59:59;98117.56;;;37.83;nan
31225;BME280;17847;31.524;74.366;2023-09-07T06:03:00;98109.28;;;37.28;nan
31225;BME280;17847;31.524;74.366;2023-09-07T06:05:51;98112.72;;;37.66;nan
31225;BME280;17847;31.524;74.366;2023-09-07T06:08:41;98108.13;;;37.37;nan
31225;BME280;17847;31.524;74.366;2023-09-07T06:11:33;98103.09;;;37.49;nan
31225;BME280;17847;31.524;74.366;2023-09-07T06:14:25;98089.41;;;37.09;nan
31225;BME280;17847;31.524;74.366;2023-09-07T06:17:15;98090.03;;;37.43;nan
31225;BME280;17847;31.524;74.366;2023-09-07T06:20:06;98091.97;;;36.54;nan
31225;BME280;17847;31.524;74.366;2023-09-07T06:22:58;98089.19;;;36.51;nan
31225;BME280;17847;31.524;74.366;2023-09-07T06:25:49;98080.41;;;37.22;nan
31225;BME280;17847;31.524;74.366;2023-09-07T06:28:38;98075.66;;;37.23;nan
31225;BME280;17847;31.524;74.366;2023-09-07T06:31:30;98071.88;;;36.94;nan
31225;BME280;17847;31.524;74.366;2023-09-07T06:34:20;98061.22;;;36.92;nan
31225;BME280;17847;31.524;74.366;2023-09-07T06:37:11;98056.47;;;36.93;nan
31225;BME280;17847;31.524;74.366;2023-09-07T06:40:02;98062.91;;;37.04;nan
31225;BME280;17847;31.524;74.366;2023-09-07T06:42:53;98052.72;;;36.68;nan
31225;BME280;17847;31.524;74.366;2023-09-07T06:45:44;98047.34;;;36.85;nan
31225;BME280;17847;31.524;74.366;2023-09-07T06:48:36;98044.72;;;37.03;nan
31225;BME280;17847;31.524;74.366;2023-09-07T06:51:25;98039.03;;;37.29;nan
31225;BME280;17847;31.524;74.366;2023-09-07T06:54:18;98039.81;;;37.26;nan
31225;BME280;17847;31.524;74.366;2023-09-07T06:57:08;98042.13;;;37.21;nan
31225;BME280;17847;31.524;74.366;2023-09-07T07:00:00;98038.16;;;37.18;nan
31225;BME280;17847;31.524;74.366;2023-09-07T07:02:50;98038.34;;;37.50;nan
31225;BME280;17847;31.524;74.366;2023-09-07T07:05:41;98031.19;;;37.35;nan
31225;BME280;17847;31.524;74.366;2023-09-07T07:08:32;98022.25;;;37.05;nan
31225;BME280;17847;31.524;74.366;2023-09-07T07:11:21;98013.47;;;36.92;nan
31225;BME280;17847;31.524;74.366;2023-09-07T07:14:11;98008.41;;;36.98;nan
31225;BME280;17847;31.524;74.366;2023-09-07T07:17:01;98003.56;;;36.84;nan
31225;BME280;17847;31.524;74.366;2023-09-07T07:19:55;97996.91;;;36.92;nan
31225;BME280;17847;31.524;74.366;2023-09-07T07:22:46;97996.81;;;36.78;nan
31225;BME280;17847;31.524;74.366;2023-09-07T07:25:37;97990.44;;;36.74;nan
31225;BME280;17847;31.524;74.366;2023-09-07T07:28:27;97976.84;;;36.51;nan
31225;BME280;17847;31.524;74.366;2023-09-07T07:31:17;97973.88;;;36.74;nan
31225;BME280;17847;31.524;74.366;2023-09-07T07:34:07;97973.97;;;36.84;nan
31225;BME280;17847;31.524;74.366;2023-09-07T07:37:00;97971.94;;;36.74;nan
31225;BME280;17847;31.524;74.366;2023-09-07T07:39:50;97974.66;;;36.67;nan
31225;BME280;17847;31.524;74.366;2023-09-07T07:42:40;97979.03;;;36.75;nan
31225;BME280;17847;31.524;74.366;2023-09-07T07:45:30;97968.34;;;36.70;nan
31225;BME280;17847;31.524;74.366;2023-09-07T07:48:22;97969.56;;;36.73;nan
31225;BME280;17847;31.524;74.366;2023-09-07T07:51:14;97965.16;;;36.65;nan
31225;BME280;17847;31.524;74.366;2023-09-07T07:54:07;97956.00;;;36.57;nan
31225;BME280;17847;31.524;74.366;2023-09-07T07:56:58;97960.06;;;36.70;nan
31225;BME280;17847;31.524;74.366;2023-09-07T07:59:48;97956.00;;;36.57;nan
31225;BME280;17847;31.524;74.366;2023-09-07T08:02:39;97951.63;;;36.53;nan
31225;BME280;17847;31.524;74.366;2023-09-07T08:05:32;97946.88;;;36.50;nan
31225;BME280;17847;31.524;74.366;2023-09-07T08:08:25;97936.66;;;36.54;nan
31225;BME280;17847;31.524;74.366;2023-09-07T08:11:15;97941.34;;;36.50;nan
31225;BME280;17847;31.524;74.366;2023-09-07T08:14:06;97932.47;;;36.26;nan
31225;BME280;17847;31.524;74.366;2023-09-07T08:17:00;97923.91;;;36.38;nan
31225;BME280;17847;31.524;74.366;2023-09-07T08:19:55;97916.16;;;36.55;nan
31225;BME280;17847;31.524;74.366;2023-09-07T08:22:47;97916.97;;;36.55;nan
31225;BME280;17847;31.524;74.366;2023-09-07T08:25:37;97917.22;;;36.39;nan
31225;BME280;17847;31.524;74.366;2023-09-07T08:28:33;97904.97;;;36.33;nan
31225;BME280;17847;31.524;74.366;2023-09-07T08:31:26;97902.72;;;36.46;nan
31225;BME280;17847;31.524;74.366;2023-09-07T08:34:18;97895.09;;;36.32;nan
31225;BME280;17847;31.524;74.366;2023-09-07T08:37:18;97894.00;;;36.44;nan
31225;BME280;17847;31.524;74.366;2023-09-07T08:40:18;97884.22;;;36.50;nan
31225;BME280;17847;31.524;74.366;2023-09-07T08:43:10;97877.44;;;36.44;nan
31225;BME280;17847;31.524;74.366;2023-09-07T08:46:18;97875.84;;;36.39;nan
31225;BME280;17847;31.524;74.366;2023-09-07T08:49:12;97872.59;;;36.27;nan
31225;BME280;17847;31.524;74.366;2023-09-07T08:52:08;97861.16;;;36.25;nan
31225;BME280;17847;31.524;74.366;2023-09-07T08:54:59;97863.22;;;36.38;nan
31225;BME280;17847;31.524;74.366;2023-09-07T08:57:52;97860.88;;;36.40;nan
31225;BME280;17847;31.524;74.366;2023-09-07T09:00:43;97859.63;;;36.34;nan
31225;BME280;17847;31.524;74.366;2023-09-07T09:03:37;97861.59;;;36.34;nan
31225;BME280;17847;31.524;74.366;2023-09-07T09:06:29;97854.91;;;36.35;nan
31225;BME280;17847;31.524;74.366;2023-09-07T09:09:24;97850.19;;;36.32;nan
31225;BME280;17847;31.524;74.366;2023-09-07T09:12:15;97854.06;;;36.24;nan
31225;BME280;17847;31.524;74.366;2023-09-07T09:15:09;97839.44;;;36.20;nan
31225;BME280;17847;31.524;74.366;2023-09-07T09:18:09;97839.44;;;36.20;nan
31225;BME280;17847;31.524;74.366;2023-09-07T09:21:02;97836.28;;;36.18;nan
31225;BME280;17847;31.524;74.366;2023-09-07T09:23:57;97833.50;;;36.18;nan
31225;BME280;17847;31.524;74.366;2023-09-07T09:26:49;97831.53;;;36.15;nan
31225;BME280;17847;31.524;74.366;2023-09-07T09:29:41;97835.88;;;36.16;nan
31225;BME280;17847;31.524;74.366;2023-09-07T09:32:33;97833.88;;;36.13;nan
31225;BME280;17847;31.524;74.366;2023-09-07T09:35:29;97824.28;;;35.99;nan
31225;BME280;17847;31.524;74.366;2023-09-07T09:38:20;97822.31;;;36.00;nan
31225;BME280;17847;31.524;74.366;2023-09-07T09:41:14;97816.44;;;36.01;nan
31225;BME280;17847;31.524;74.366;2023-09-07T09:44:10;97821.50;;;35.99;nan
31225;BME280;17847;31.524;74.366;2023-09-07T09:47:02;97809.66;;;35.95;nan
31225;BME280;17847;31.524;74.366;2023-09-07T09:49:58;97818.72;;;35.92;nan
31225;BME280;17847;31.524;74.366;2023-09-07T09:52:57;97809.31;;;35.97;nan
31225;BME280;17847;31.524;74.366;2023-09-07T09:55:50;97804.94;;;35.92;nan
31225;BME280;17847;31.524;74.366;2023-09-07T09:58:44;97792.69;;;35.90;nan
31225;BME280;17847;31.524;74.366;2023-09-07T10:01:44;97793.78;;;35.82;nan
31225;BME280;17847;31.524;74.366;2023-09-07T10:04:35;97794.59;;;35.82;nan
31225;BME280;17847;31.524;74.366;2023-09-07T10:07:48;97787.09;;;35.79;nan
31225;BME280;17847;31.524;74.366;2023-09-07T10:10:42;97775.63;;;35.74;nan
31225;BME280;17847;31.524;74.366;2023-09-07T10:13:35;97768.34;;;35.58;nan
31225;BME280;17847;31.524;74.366;2023-09-07T10:16:28;97766.75;;;35.54;nan
31225;BME280;17847;31.524;74.366;2023-09-07T10:19:21;97769.09;;;35.52;nan
31225;BME280;17847;31.524;74.366;2023-09-07T10:22:21;97759.28;;;35.54;nan
31225;BME280;17847;31.524;74.366;2023-09-07T10:25:22;97759.72;;;35.60;nan
31225;BME280;17847;31.524;74.366;2023-09-07T10:28:23;97756.94;;;35.56;nan
31225;BME280;17847;31.524;74.366;2023-09-07T10:31:18;97754.53;;;35.51;nan
31225;BME280;17847;31.524;74.366;2023-09-07T10:34:14;97743.00;;;35.39;nan
31225;BME280;17847;31.524;74.366;2023-09-07T10:37:29;97745.56;;;35.21;nan
31225;BME280;17847;31.524;74.366;2023-09-07T10:40:21;97747.09;;;35.19;nan
31225;BME280;17847;31.524;74.366;2023-09-07T10:43:15;97746.66;;;35.13;nan
31225;BME280;17847;31.524;74.366;2023-09-07T10:46:05;97743.88;;;35.09;nan
31225;BME280;17847;31.524;74.366;2023-09-07T10:48:56;97741.47;;;35.08;nan
31225;BME280;17847;31.524;74.366;2023-09-07T10:51:48;97738.25;;;35.02;nan
31225;BME280;17847;31.524;74.366;2023-09-07T10:55:03;97732.69;;;34.95;nan
31225;BME280;17847;31.524;74.366;2023-09-07T10:57:59;97724.44;;;34.95;nan
31225;BME280;17847;31.524;74.366;2023-09-07T11:00:56;97725.97;;;34.93;nan
31225;BME280;17847;31.524;74.366;2023-09-07T11:03:49;97717.28;;;34.87;nan
31225;BME280;17847;31.524;74.366;2023-09-07T11:06:41;97723.13;;;34.86;nan
31225;BME280;17847;31.524;74.366;2023-09-07T11:09:42;97716.34;;;34.76;nan
31225;BME280;17847;31.524;74.366;2023-09-07T11:12:39;97721.88;;;34.80;nan
31225;BME280;17847;31.524;74.366;2023-09-07T11:15:32;97709.63;;;34.74;nan
31225;BME280;17847;31.524;74.366;2023-09-07T11:18:31;97708.81;;;34.69;nan
31225;BME280;17847;31.524;74.366;2023-09-07T11:21:25;97700.03;;;34.60;nan
31225;BME280;17847;31.524;74.366;2023-09-07T11:24:21;97702.69;;;34.57;nan
31225;BME280;17847;31.524;74.366;2023-09-07T11:27:13;97703.97;;;34.63;nan
31225;BME280;17847;31.524;74.366;2023-09-07T11:30:10;97698.81;;;34.61;nan
31225;BME280;17847;31.524;74.366;2023-09-07T11:33:06;97700.75;;;34.57;nan
31225;BME280;17847;31.524;74.366;2023-09-07T11:36:02;97686.91;;;34.50;nan
31225;BME280;17847;31.524;74.366;2023-09-07T11:38:55;97684.53;;;34.49;nan
31225;BME280;17847;31.524;74.366;2023-09-07T11:41:45;97685.78;;;34.55;nan
31225;BME280;17847;31.524;74.366;2023-09-07T11:44:37;97687.31;;;34.52;nan
31225;BME280;17847;31.524;74.366;2023-09-07T11:47:31;97689.25;;;34.48;nan
31225;BME280;17847;31.524;74.366;2023-09-07T11:50:24;97681.66;;;34.38;nan
31225;BME280;17847;31.524;74.366;2023-09-07T11:53:16;97679.59;;;34.32;nan
31225;BME280;17847;31.524;74.366;2023-09-07T11:56:07;97675.69;;;34.33;nan
31225;BME280;17847;31.524;74.366;2023-09-07T11:58:58;97672.47;;;34.27;nan
31225;BME280;17847;31.524;74.366;2023-09-07T12:02:01;97666.47;;;34.18;nan
31225;BME280;17847;31.524;74.366;2023-09-07T12:04:56;97660.00;;;34.07;nan
31225;BME280;17847;31.524;74.366;2023-09-07T12:07:52;97659.44;;;33.94;nan
31225;BME280;17847;31.524;74.366;2023-09-07T12:10:49;97656.63;;;33.91;nan
31225;BME280;17847;31.524;74.366;2023-09-07T12:13:39;97654.56;;;33.84;nan
31225;BME280;17847;31.524;74.366;2023-09-07T12:16:30;97652.63;;;33.84;nan
31225;BME280;17847;31.524;74.366;2023-09-07T12:19:22;97645.19;;;33.85;nan
31225;BME280;17847;31.524;74.366;2023-09-07T12:22:17;97651.00;;;33.80;nan
31225;BME280;17847;31.524;74.366;2023-09-07T12:25:08;97644.69;;;33.79;nan
31225;BME280;17847;31.524;74.366;2023-09-07T12:28:07;97643.59;;;33.84;nan
31225;BME280;17847;31.524;74.366;2023-09-07T12:31:01;97649.88;;;33.84;nan
31225;BME280;17847;31.524;74.366;2023-09-07T12:33:54;97646.34;;;33.84;nan
31225;BME280;17847;31.524;74.366;2023-09-07T12:36:47;97654.53;;;33.80;nan
31225;BME280;17847;31.524;74.366;2023-09-07T12:39:38;97650.50;;;33.74;nan
31225;BME280;17847;31.524;74.366;2023-09-07T12:42:29;97653.56;;;33.69;nan
31225;BME280;17847;31.524;74.366;2023-09-07T12:45:24;97654.00;;;33.71;nan
31225;BME280;17847;31.524;74.366;2023-09-07T12:48:16;97650.81;;;33.69;nan
31225;BME280;17847;31.524;74.366;2023-09-07T12:51:07;97649.16;;;33.65;nan
31225;BME280;17847;31.524;74.366;2023-09-07T12:54:01;97647.91;;;33.59;nan
31225;BME280;17847;31.524;74.366;2023-09-07T12:56:55;97656.53;;;33.61;nan
31225;BME280;17847;31.524;74.366;2023-09-07T12:59:50;97651.50;;;33.63;nan
31225;BME280;17847;31.524;74.366;2023-09-07T13:02:45;97655.75;;;33.60;nan
31225;BME280;17847;31.524;74.366;2023-09-07T13:05:36;97649.53;;;33.63;nan
31225;BME280;17847;31.524;74.366;2023-09-07T13:08:30;97642.44;;;33.62;nan
31225;BME280;17847;31.524;74.366;2023-09-07T13:11:23;97657.34;;;33.61;nan
31225;BME280;17847;31.524;74.366;2023-09-07T13:14:16;97652.47;;;33.51;nan
31225;BME280;17847;31.524;74.366;2023-09-07T13:17:13;97650.38;;;33.41;nan
31225;BME280;17847;31.524;74.366;2023-09-07T13:20:07;97651.50;;;33.40;nan
31225;BME280;17847;31.524;74.366;2023-09-07T13:23:00;97650.38;;;33.41;nan
31225;BME280;17847;31.524;74.366;2023-09-07T13:25:57;97644.72;;;33.34;nan
31225;BME280;17847;31.524;74.366;2023-09-07T13:28:53;97643.53;;;33.31;nan
31225;BME280;17847;31.524;74.366;2023-09-07T13:31:46;97652.13;;;33.30;nan
31225;BME280;17847;31.524;74.366;2023-09-07T13:34:42;97647.72;;;33.25;nan
31225;BME280;17847;31.524;74.366;2023-09-07T13:37:44;97645.34;;;33.24;nan
31225;BME280;17847;31.524;74.366;2023-09-07T13:40:34;97642.41;;;33.13;nan
31225;BME280;17847;31.524;74.366;2023-09-07T13:43:28;97655.69;;;33.11;nan
31225;BME280;17847;31.524;74.366;2023-09-07T13:46:20;97647.91;;;33.13;nan
31225;BME280;17847;31.524;74.366;2023-09-07T13:49:17;97654.88;;;33.11;nan
31225;BME280;17847;31.524;74.366;2023-09-07T13:52:10;97659.53;;;33.07;nan
31225;BME280;17847;31.524;74.366;2023-09-07T13:55:16;97661.72;;;32.97;nan
31225;BME280;17847;31.524;74.366;2023-09-07T13:58:07;97663.19;;;32.91;nan
31225;BME280;17847;31.524;74.366;2023-09-07T14:00:58;97653.59;;;32.82;nan
31225;BME280;17847;31.524;74.366;2023-09-07T14:03:53;97657.78;;;32.76;nan
31225;BME280;17847;31.524;74.366;2023-09-07T14:06:49;97660.63;;;32.79;nan
31225;BME280;17847;31.524;74.366;2023-09-07T14:09:41;97667.25;;;32.78;nan
31225;BME280;17847;31.524;74.366;2023-09-07T14:12:31;97670.69;;;32.75;nan
31225;BME280;17847;31.524;74.366;2023-09-07T14:15:21;97670.94;;;32.67;nan
31225;BME280;17847;31.524;74.366;2023-09-07T14:18:17;97668.38;;;32.58;nan
31225;BME280;17847;31.524;74.366;2023-09-07T14:21:08;97677.63;;;32.50;nan
31225;BME280;17847;31.524;74.366;2023-09-07T14:24:01;97681.50;;;32.49;nan
31225;BME280;17847;31.524;74.366;2023-09-07T14:26:56;97675.81;;;32.38;nan
31225;BME280;17847;31.524;74.366;2023-09-07T14:29:50;97683.47;;;32.29;nan
31225;BME280;17847;31.524;74.366;2023-09-07T14:32:40;97696.66;;;32.24;nan
31225;BME280;17847;31.524;74.366;2023-09-07T14:35:30;97698.97;;;32.22;nan
31225;BME280;17847;31.524;74.366;2023-09-07T14:38:19;97704.28;;;32.15;nan
31225;BME280;17847;31.524;74.366;2023-09-07T14:41:10;97697.94;;;32.11;nan
31225;BME280;17847;31.524;74.366;2023-09-07T14:44:12;97700.84;;;32.02;nan
31225;BME280;17847;31.524;74.366;2023-09-07T14:47:01;97699.97;;;31.98;nan
31225;BME280;17847;31.524;74.366;2023-09-07T14:49:54;97702.16;;;31.92;nan
31225;BME280;17847;31.524;74.366;2023-09-07T14:52:44;97718.44;;;31.85;nan
31225;BME280;17847;31.524;74.366;2023-09-07T14:55:37;97721.19;;;31.85;nan
31225;BME280;17847;31.524;74.366;2023-09-07T14:58:26;97723.06;;;31.81;nan
31225;BME280;17847;31.524;74.366;2023-09-07T15:01:17;97721.00;;;31.78;nan
31225;BME280;17847;31.524;74.366;2023-09-07T15:04:07;97730.28;;;31.74;nan
31225;BME280;17847;31.524;74.366;2023-09-07T15:06:57;97728.59;;;31.69;nan
31225;BME280;17847;31.524;74.366;2023-09-07T15:09:47;97734.81;;;31.66;nan
31225;BME280;17847;31.524;74.366;2023-09-07T15:12:37;97738.50;;;31.58;nan
31225;BME280;17847;31.524;74.366;2023-09-07T15:15:28;97743.53;;;31.56;nan
31225;BME280;17847;31.524;74.366;2023-09-07T15:18:21;97745.38;;;31.52;nan
31225;BME280;17847;31.524;74.366;2023-09-07T15:21:10;97756.69;;;31.50;nan
31225;BME280;17847;31.524;74.366;2023-09-07T15:24:01;97748.34;;;31.47;nan